A7ABI OKKK-OBBI
Flight info
| Callsign | A7ABI |
|---|---|
| Flight time | 1h 7m |
| Altitude | 27000 |
| Route | BOXIK4F BOXIK B416 IMDOX P975 LONOS L703 KOBOK KOBOK1 |
| Aircraft | SF50/L-SDGRWY/L |
Departure
| Time | 2026-05-08 11:16 |
|---|---|
| Airport | Kuwait International Airport (OKKK) |
Arrival
| Time | 2026-05-08 12:23 |
|---|---|
| Airport | Bahrain International Airport (OBBI) |
| Time | Latitude | Longitude | Altitude | Speed | Heading |
|---|---|---|---|---|---|
| 2026-05-08 10:57 | 29.23784 | 47.96743 | 143 ft | 0 kts | 333° |
| 2026-05-08 11:09 | 29.23787 | 47.96746 | 143 ft | 2 kts | 129° |
| 2026-05-08 11:09 | 29.23761 | 47.96761 | 143 ft | 7 kts | 154° |
| 2026-05-08 11:09 | 29.23704 | 47.96779 | 144 ft | 11 kts | 199° |
| 2026-05-08 11:10 | 29.23691 | 47.96764 | 143 ft | 4 kts | 245° |
| 2026-05-08 11:10 | 29.23674 | 47.96709 | 143 ft | 11 kts | 251° |
| 2026-05-08 11:10 | 29.23658 | 47.96638 | 143 ft | 11 kts | 262° |
| 2026-05-08 11:10 | 29.23584 | 47.96650 | 143 ft | 15 kts | 153° |
| 2026-05-08 11:11 | 29.23462 | 47.96716 | 145 ft | 23 kts | 156° |
| 2026-05-08 11:11 | 29.23293 | 47.96798 | 147 ft | 29 kts | 149° |
| 2026-05-08 11:11 | 29.23127 | 47.96893 | 149 ft | 21 kts | 156° |
| 2026-05-08 11:11 | 29.22985 | 47.96967 | 151 ft | 24 kts | 154° |
| 2026-05-08 11:12 | 29.22815 | 47.97056 | 153 ft | 29 kts | 154° |
| 2026-05-08 11:12 | 29.22632 | 47.97154 | 155 ft | 30 kts | 154° |
| 2026-05-08 11:12 | 29.22457 | 47.97248 | 158 ft | 27 kts | 155° |
| 2026-05-08 11:12 | 29.22283 | 47.97341 | 160 ft | 28 kts | 155° |
| 2026-05-08 11:13 | 29.22102 | 47.97437 | 162 ft | 23 kts | 156° |
| 2026-05-08 11:13 | 29.21942 | 47.97522 | 164 ft | 28 kts | 154° |
| 2026-05-08 11:13 | 29.21748 | 47.97624 | 166 ft | 33 kts | 155° |
| 2026-05-08 11:13 | 29.21550 | 47.97726 | 168 ft | 31 kts | 153° |
| 2026-05-08 11:14 | 29.21379 | 47.97821 | 171 ft | 23 kts | 155° |
| 2026-05-08 11:14 | 29.21278 | 47.97856 | 172 ft | 9 kts | 201° |
| 2026-05-08 11:14 | 29.21244 | 47.97791 | 171 ft | 12 kts | 254° |
| 2026-05-08 11:14 | 29.21269 | 47.97700 | 171 ft | 14 kts | 298° |
| 2026-05-08 11:15 | 29.21329 | 47.97595 | 169 ft | 7 kts | 333° |
| 2026-05-08 11:15 | 29.21340 | 47.97589 | 169 ft | 16 kts | 336° |
| 2026-05-08 11:15 | 29.21679 | 47.97404 | 164 ft | 89 kts | 335° |
| 2026-05-08 11:15 | 29.22392 | 47.97074 | 495 ft | 112 kts | 332° |
| 2026-05-08 11:16 | 29.23064 | 47.96735 | 951 ft | 109 kts | 334° |
| 2026-05-08 11:16 | 29.23782 | 47.96318 | 1232 ft | 121 kts | 334° |
| 2026-05-08 11:16 | 29.24559 | 47.95891 | 1533 ft | 127 kts | 334° |
| 2026-05-08 11:16 | 29.25371 | 47.95451 | 1828 ft | 131 kts | 335° |
| 2026-05-08 11:17 | 29.26207 | 47.95005 | 2124 ft | 133 kts | 334° |
| 2026-05-08 11:17 | 29.27093 | 47.94687 | 2407 ft | 139 kts | 0° |
| 2026-05-08 11:17 | 29.27968 | 47.95104 | 2856 ft | 137 kts | 31° |
| 2026-05-08 11:17 | 29.28491 | 47.96004 | 3323 ft | 139 kts | 71° |
| 2026-05-08 11:18 | 29.28455 | 47.97122 | 3713 ft | 151 kts | 106° |
| 2026-05-08 11:18 | 29.27855 | 47.98224 | 3890 ft | 173 kts | 121° |
| 2026-05-08 11:18 | 29.27326 | 47.99490 | 4159 ft | 179 kts | 101° |
| 2026-05-08 11:18 | 29.26689 | 48.00735 | 4408 ft | 186 kts | 136° |
| 2026-05-08 11:19 | 29.25696 | 48.01709 | 4685 ft | 190 kts | 135° |
| 2026-05-08 11:19 | 29.24944 | 48.02915 | 4966 ft | 189 kts | 114° |
| 2026-05-08 11:19 | 29.24388 | 48.04289 | 5129 ft | 192 kts | 121° |
| 2026-05-08 11:19 | 29.23612 | 48.05540 | 5267 ft | 191 kts | 125° |
| 2026-05-08 11:20 | 29.22866 | 48.06802 | 5342 ft | 193 kts | 123° |
| 2026-05-08 11:20 | 29.22126 | 48.08092 | 5397 ft | 196 kts | 123° |
| 2026-05-08 11:20 | 29.21373 | 48.09392 | 5470 ft | 196 kts | 124° |
| 2026-05-08 11:20 | 29.20644 | 48.10640 | 5774 ft | 184 kts | 126° |
| 2026-05-08 11:21 | 29.19949 | 48.11841 | 6055 ft | 178 kts | 124° |
| 2026-05-08 11:21 | 29.19272 | 48.13009 | 6339 ft | 174 kts | 125° |
| 2026-05-08 11:21 | 29.18575 | 48.14198 | 6369 ft | 187 kts | 126° |
| 2026-05-08 11:21 | 29.17817 | 48.15499 | 6649 ft | 197 kts | 126° |
| 2026-05-08 11:22 | 29.17061 | 48.16797 | 7186 ft | 197 kts | 126° |
| 2026-05-08 11:22 | 29.16309 | 48.18088 | 7674 ft | 198 kts | 127° |
| 2026-05-08 11:22 | 29.15542 | 48.19403 | 8176 ft | 198 kts | 127° |
| 2026-05-08 11:22 | 29.14773 | 48.20720 | 8685 ft | 200 kts | 127° |
| 2026-05-08 11:23 | 29.13998 | 48.22052 | 9178 ft | 203 kts | 128° |
| 2026-05-08 11:23 | 29.13207 | 48.23407 | 9645 ft | 207 kts | 128° |
| 2026-05-08 11:23 | 29.12403 | 48.24784 | 10148 ft | 209 kts | 128° |
| 2026-05-08 11:23 | 29.11599 | 48.26163 | 10626 ft | 208 kts | 127° |
| 2026-05-08 11:24 | 29.10794 | 48.27545 | 11090 ft | 208 kts | 128° |
| 2026-05-08 11:24 | 29.09988 | 48.28921 | 11552 ft | 209 kts | 127° |
| 2026-05-08 11:24 | 29.09184 | 48.30300 | 12010 ft | 209 kts | 127° |
| 2026-05-08 11:24 | 29.08374 | 48.31681 | 12466 ft | 209 kts | 127° |
| 2026-05-08 11:25 | 29.07562 | 48.33072 | 12917 ft | 210 kts | 127° |
| 2026-05-08 11:25 | 29.06747 | 48.34462 | 13364 ft | 211 kts | 127° |
| 2026-05-08 11:25 | 29.05930 | 48.35858 | 13805 ft | 212 kts | 127° |
| 2026-05-08 11:25 | 29.05108 | 48.37263 | 14171 ft | 214 kts | 127° |
| 2026-05-08 11:26 | 29.04270 | 48.38690 | 14529 ft | 217 kts | 127° |
| 2026-05-08 11:26 | 29.03428 | 48.40132 | 14882 ft | 220 kts | 127° |
| 2026-05-08 11:26 | 29.02571 | 48.41594 | 15239 ft | 223 kts | 128° |
| 2026-05-08 11:26 | 29.01703 | 48.43075 | 15595 ft | 226 kts | 128° |
| 2026-05-08 11:27 | 29.00834 | 48.44559 | 15939 ft | 229 kts | 128° |
| 2026-05-08 11:27 | 28.99932 | 48.46096 | 16290 ft | 232 kts | 128° |
| 2026-05-08 11:27 | 28.99041 | 48.47617 | 16636 ft | 234 kts | 128° |
| 2026-05-08 11:27 | 28.98127 | 48.49169 | 16978 ft | 237 kts | 128° |
| 2026-05-08 11:28 | 28.97205 | 48.50741 | 17323 ft | 240 kts | 128° |
| 2026-05-08 11:28 | 28.96268 | 48.52332 | 17662 ft | 242 kts | 129° |
| 2026-05-08 11:28 | 28.95324 | 48.53938 | 17998 ft | 245 kts | 129° |
| 2026-05-08 11:28 | 28.94371 | 48.55561 | 18315 ft | 247 kts | 129° |
| 2026-05-08 11:29 | 28.93412 | 48.57191 | 18635 ft | 247 kts | 129° |
| 2026-05-08 11:29 | 28.92455 | 48.58821 | 18968 ft | 246 kts | 130° |
| 2026-05-08 11:29 | 28.91501 | 48.60441 | 19294 ft | 245 kts | 130° |
| 2026-05-08 11:29 | 28.90552 | 48.62057 | 19617 ft | 245 kts | 130° |
| 2026-05-08 11:30 | 28.89616 | 48.63644 | 19934 ft | 244 kts | 131° |
| 2026-05-08 11:30 | 28.88670 | 48.65251 | 20239 ft | 243 kts | 131° |
| 2026-05-08 11:30 | 28.87729 | 48.66849 | 20569 ft | 242 kts | 131° |
| 2026-05-08 11:30 | 28.86789 | 48.68439 | 20871 ft | 241 kts | 131° |
| 2026-05-08 11:31 | 28.85860 | 48.70015 | 21203 ft | 239 kts | 131° |
| 2026-05-08 11:31 | 28.84939 | 48.71576 | 21538 ft | 236 kts | 131° |
| 2026-05-08 11:31 | 28.84028 | 48.73116 | 21877 ft | 233 kts | 132° |
| 2026-05-08 11:31 | 28.83124 | 48.74647 | 22204 ft | 231 kts | 133° |
| 2026-05-08 11:32 | 28.82230 | 48.76157 | 22545 ft | 229 kts | 133° |
| 2026-05-08 11:32 | 28.81349 | 48.77651 | 22881 ft | 226 kts | 133° |
| 2026-05-08 11:32 | 28.80473 | 48.79137 | 23217 ft | 224 kts | 133° |
| 2026-05-08 11:32 | 28.79691 | 48.80689 | 23520 ft | 226 kts | 128° |
| 2026-05-08 11:33 | 28.78934 | 48.82252 | 23778 ft | 225 kts | 129° |
| 2026-05-08 11:33 | 28.78171 | 48.83809 | 24009 ft | 225 kts | 129° |
| 2026-05-08 11:33 | 28.77406 | 48.85370 | 24251 ft | 225 kts | 130° |
| 2026-05-08 11:33 | 28.76642 | 48.86929 | 24491 ft | 225 kts | 130° |
| 2026-05-08 11:34 | 28.75875 | 48.88491 | 24728 ft | 226 kts | 130° |
| 2026-05-08 11:34 | 28.75120 | 48.90028 | 24964 ft | 226 kts | 130° |
| 2026-05-08 11:34 | 28.74354 | 48.91590 | 25203 ft | 226 kts | 130° |
| 2026-05-08 11:34 | 28.73584 | 48.93156 | 25437 ft | 226 kts | 131° |
| 2026-05-08 11:35 | 28.72814 | 48.94721 | 25685 ft | 226 kts | 131° |
| 2026-05-08 11:35 | 28.72044 | 48.96289 | 25908 ft | 227 kts | 131° |
| 2026-05-08 11:35 | 28.71271 | 48.97862 | 26138 ft | 228 kts | 131° |
| 2026-05-08 11:35 | 28.70495 | 48.99440 | 26383 ft | 228 kts | 131° |
| 2026-05-08 11:36 | 28.69721 | 49.01017 | 26631 ft | 228 kts | 132° |
| 2026-05-08 11:36 | 28.68945 | 49.02594 | 26875 ft | 228 kts | 132° |
| 2026-05-08 11:36 | 28.68148 | 49.04203 | 26905 ft | 239 kts | 132° |
| 2026-05-08 11:36 | 28.67599 | 49.05309 | 26912 ft | 245 kts | 131° |
| 2026-05-08 11:37 | 28.66464 | 49.07625 | 26918 ft | 255 kts | 131° |
| 2026-05-08 11:37 | 28.65599 | 49.09385 | 26910 ft | 260 kts | 130° |
| 2026-05-08 11:37 | 28.64708 | 49.11197 | 26918 ft | 265 kts | 130° |
| 2026-05-08 11:37 | 28.64096 | 49.12438 | 26918 ft | 267 kts | 130° |
| 2026-05-08 11:38 | 28.63174 | 49.14301 | 26916 ft | 272 kts | 130° |
| 2026-05-08 11:38 | 28.62246 | 49.16185 | 26918 ft | 275 kts | 130° |
| 2026-05-08 11:38 | 28.61303 | 49.18094 | 26916 ft | 278 kts | 130° |
| 2026-05-08 11:38 | 28.60360 | 49.20002 | 26915 ft | 281 kts | 129° |
| 2026-05-08 11:39 | 28.59391 | 49.21944 | 26909 ft | 282 kts | 132° |
| 2026-05-08 11:39 | 28.58208 | 49.23674 | 26907 ft | 273 kts | 144° |
| 2026-05-08 11:39 | 28.56788 | 49.25072 | 26909 ft | 266 kts | 155° |
| 2026-05-08 11:39 | 28.55204 | 49.26120 | 26906 ft | 262 kts | 163° |
| 2026-05-08 11:40 | 28.53566 | 49.27050 | 26908 ft | 266 kts | 162° |
| 2026-05-08 11:40 | 28.51911 | 49.28019 | 26911 ft | 268 kts | 162° |
| 2026-05-08 11:40 | 28.50303 | 49.29159 | 26908 ft | 278 kts | 153° |
| 2026-05-08 11:40 | 28.48819 | 49.30616 | 26905 ft | 283 kts | 149° |
| 2026-05-08 11:41 | 28.47338 | 49.32098 | 26907 ft | 284 kts | 149° |
| 2026-05-08 11:41 | 28.45856 | 49.33558 | 26910 ft | 285 kts | 149° |
| 2026-05-08 11:41 | 28.44363 | 49.35041 | 26908 ft | 286 kts | 149° |
| 2026-05-08 11:41 | 28.42862 | 49.36533 | 26909 ft | 287 kts | 149° |
| 2026-05-08 11:42 | 28.41356 | 49.38028 | 26897 ft | 288 kts | 149° |
| 2026-05-08 11:42 | 28.39843 | 49.39529 | 26898 ft | 289 kts | 149° |
| 2026-05-08 11:42 | 28.38328 | 49.41030 | 26904 ft | 289 kts | 149° |
| 2026-05-08 11:42 | 28.36809 | 49.42537 | 26904 ft | 290 kts | 149° |
| 2026-05-08 11:43 | 28.35286 | 49.44047 | 26901 ft | 290 kts | 149° |
| 2026-05-08 11:43 | 28.33767 | 49.45550 | 26901 ft | 291 kts | 149° |
| 2026-05-08 11:43 | 28.32241 | 49.47063 | 26901 ft | 291 kts | 149° |
| 2026-05-08 11:43 | 28.30717 | 49.48574 | 26901 ft | 291 kts | 149° |
| 2026-05-08 11:44 | 28.29189 | 49.50081 | 26904 ft | 291 kts | 149° |
| 2026-05-08 11:44 | 28.27659 | 49.51587 | 26905 ft | 291 kts | 149° |
| 2026-05-08 11:44 | 28.26130 | 49.53098 | 26876 ft | 291 kts | 149° |
| 2026-05-08 11:44 | 28.24603 | 49.54605 | 26891 ft | 291 kts | 149° |
| 2026-05-08 11:45 | 28.23071 | 49.56114 | 26890 ft | 291 kts | 149° |
| 2026-05-08 11:45 | 28.21555 | 49.57581 | 26891 ft | 288 kts | 152° |
| 2026-05-08 11:45 | 28.19962 | 49.58944 | 26891 ft | 287 kts | 153° |
| 2026-05-08 11:45 | 28.18369 | 49.60308 | 26894 ft | 287 kts | 153° |
| 2026-05-08 11:46 | 28.16778 | 49.61680 | 26885 ft | 287 kts | 153° |
| 2026-05-08 11:46 | 28.15186 | 49.63051 | 26885 ft | 287 kts | 153° |
| 2026-05-08 11:46 | 28.13592 | 49.64420 | 26883 ft | 288 kts | 153° |
| 2026-05-08 11:46 | 28.11995 | 49.65794 | 26885 ft | 288 kts | 153° |
| 2026-05-08 11:47 | 28.10402 | 49.67162 | 26891 ft | 288 kts | 153° |
| 2026-05-08 11:47 | 28.08804 | 49.68536 | 26881 ft | 288 kts | 152° |
| 2026-05-08 11:47 | 28.07211 | 49.69906 | 26889 ft | 288 kts | 152° |
| 2026-05-08 11:47 | 28.05614 | 49.71278 | 26889 ft | 288 kts | 152° |
| 2026-05-08 11:48 | 28.04001 | 49.72601 | 26880 ft | 285 kts | 155° |
| 2026-05-08 11:48 | 28.02365 | 49.73867 | 26885 ft | 285 kts | 155° |
| 2026-05-08 11:48 | 28.00750 | 49.75118 | 26883 ft | 285 kts | 155° |
| 2026-05-08 11:48 | 27.99116 | 49.76392 | 26883 ft | 285 kts | 155° |
| 2026-05-08 11:49 | 27.97480 | 49.77666 | 26882 ft | 286 kts | 155° |
| 2026-05-08 11:49 | 27.95838 | 49.78941 | 26882 ft | 286 kts | 155° |
| 2026-05-08 11:49 | 27.94200 | 49.80214 | 26880 ft | 286 kts | 155° |
| 2026-05-08 11:49 | 27.92562 | 49.81487 | 26877 ft | 286 kts | 155° |
| 2026-05-08 11:50 | 27.90923 | 49.82759 | 26867 ft | 286 kts | 155° |
| 2026-05-08 11:50 | 27.89282 | 49.84033 | 26876 ft | 286 kts | 154° |
| 2026-05-08 11:50 | 27.87643 | 49.85304 | 26880 ft | 286 kts | 154° |
| 2026-05-08 11:50 | 27.85999 | 49.86579 | 26877 ft | 286 kts | 154° |
| 2026-05-08 11:51 | 27.84359 | 49.87854 | 26876 ft | 286 kts | 154° |
| 2026-05-08 11:51 | 27.82717 | 49.89128 | 26873 ft | 286 kts | 154° |
| 2026-05-08 11:51 | 27.81074 | 49.90400 | 26873 ft | 286 kts | 154° |
| 2026-05-08 11:51 | 27.79427 | 49.91677 | 26873 ft | 286 kts | 154° |
| 2026-05-08 11:52 | 27.77787 | 49.92946 | 26878 ft | 287 kts | 154° |
| 2026-05-08 11:52 | 27.76164 | 49.94202 | 26870 ft | 287 kts | 154° |
| 2026-05-08 11:52 | 27.74515 | 49.95479 | 26875 ft | 287 kts | 154° |
| 2026-05-08 11:52 | 27.72869 | 49.96750 | 26869 ft | 287 kts | 155° |
| 2026-05-08 11:53 | 27.71222 | 49.98023 | 26873 ft | 286 kts | 155° |
| 2026-05-08 11:53 | 27.69578 | 49.99292 | 26870 ft | 286 kts | 155° |
| 2026-05-08 11:53 | 27.67933 | 50.00561 | 26870 ft | 287 kts | 155° |
| 2026-05-08 11:53 | 27.66288 | 50.01833 | 26870 ft | 287 kts | 155° |
| 2026-05-08 11:54 | 27.64641 | 50.03102 | 26870 ft | 287 kts | 155° |
| 2026-05-08 11:54 | 27.62995 | 50.04372 | 26871 ft | 287 kts | 155° |
| 2026-05-08 11:54 | 27.61345 | 50.05645 | 26871 ft | 287 kts | 155° |
| 2026-05-08 11:54 | 27.59720 | 50.06898 | 26868 ft | 287 kts | 155° |
| 2026-05-08 11:55 | 27.58074 | 50.08169 | 26868 ft | 287 kts | 155° |
| 2026-05-08 11:55 | 27.56422 | 50.09440 | 26868 ft | 287 kts | 155° |
| 2026-05-08 11:55 | 27.54775 | 50.10709 | 26861 ft | 287 kts | 155° |
| 2026-05-08 11:55 | 27.53126 | 50.11979 | 26866 ft | 287 kts | 155° |
| 2026-05-08 11:56 | 27.51475 | 50.13248 | 26862 ft | 287 kts | 155° |
| 2026-05-08 11:56 | 27.49824 | 50.14520 | 26862 ft | 288 kts | 155° |
| 2026-05-08 11:56 | 27.48168 | 50.15792 | 26859 ft | 288 kts | 155° |
| 2026-05-08 11:56 | 27.46510 | 50.17065 | 26859 ft | 288 kts | 155° |
| 2026-05-08 11:57 | 27.44854 | 50.18339 | 26861 ft | 288 kts | 155° |
| 2026-05-08 11:57 | 27.43224 | 50.19662 | 26855 ft | 289 kts | 153° |
| 2026-05-08 11:57 | 27.41592 | 50.20982 | 26860 ft | 289 kts | 153° |
| 2026-05-08 11:57 | 27.39954 | 50.22307 | 26861 ft | 290 kts | 153° |
| 2026-05-08 11:58 | 27.38341 | 50.23616 | 26862 ft | 290 kts | 153° |
| 2026-05-08 11:58 | 27.36704 | 50.24943 | 26860 ft | 290 kts | 153° |
| 2026-05-08 11:58 | 27.35066 | 50.26272 | 26860 ft | 290 kts | 153° |
| 2026-05-08 11:59 | 27.31778 | 50.28934 | 26861 ft | 291 kts | 153° |
| 2026-05-08 11:59 | 27.30139 | 50.30262 | 26861 ft | 291 kts | 153° |
| 2026-05-08 11:59 | 27.28492 | 50.31594 | 26861 ft | 291 kts | 153° |
| 2026-05-08 11:59 | 27.26865 | 50.32909 | 26860 ft | 291 kts | 153° |
| 2026-05-08 12:00 | 27.25221 | 50.34241 | 26857 ft | 291 kts | 153° |
| 2026-05-08 12:00 | 27.23576 | 50.35569 | 26858 ft | 291 kts | 153° |
| 2026-05-08 12:00 | 27.21930 | 50.36897 | 26858 ft | 291 kts | 153° |
| 2026-05-08 12:00 | 27.20284 | 50.38227 | 26858 ft | 291 kts | 153° |
| 2026-05-08 12:01 | 27.18638 | 50.39554 | 26851 ft | 291 kts | 153° |
| 2026-05-08 12:01 | 27.16994 | 50.40882 | 26854 ft | 291 kts | 153° |
| 2026-05-08 12:01 | 27.15347 | 50.42209 | 26845 ft | 291 kts | 153° |
| 2026-05-08 12:01 | 27.13708 | 50.43531 | 26850 ft | 290 kts | 153° |
| 2026-05-08 12:02 | 27.12071 | 50.44850 | 26850 ft | 289 kts | 153° |
| 2026-05-08 12:02 | 27.10437 | 50.46167 | 26849 ft | 289 kts | 153° |
| 2026-05-08 12:02 | 27.08805 | 50.47482 | 26848 ft | 289 kts | 153° |
| 2026-05-08 12:02 | 27.07174 | 50.48795 | 26849 ft | 288 kts | 153° |
| 2026-05-08 12:03 | 27.01523 | 50.53342 | 26846 ft | 288 kts | 153° |
| 2026-05-08 12:03 | 26.93955 | 50.57632 | 26842 ft | 251 kts | 191° |
| 2026-05-08 12:03 | 26.89748 | 50.56734 | 26851 ft | 255 kts | 190° |
| 2026-05-08 12:03 | 26.86384 | 50.56860 | 26856 ft | 261 kts | 181° |
| 2026-05-08 12:04 | 26.83810 | 50.57025 | 26864 ft | 261 kts | 184° |
| 2026-05-08 12:04 | 26.75815 | 50.57348 | 26877 ft | 263 kts | 183° |
| 2026-05-08 12:04 | 26.54606 | 50.58362 | 26966 ft | 261 kts | 184° |
| 2026-05-08 12:04 | 26.52794 | 50.58481 | 26971 ft | 264 kts | 178° |
| 2026-05-08 12:05 | 26.50997 | 50.58976 | 25857 ft | 273 kts | 167° |
| 2026-05-08 12:05 | 26.49226 | 50.59963 | 24394 ft | 295 kts | 154° |
| 2026-05-08 12:05 | 26.47605 | 50.61422 | 23058 ft | 304 kts | 141° |
| 2026-05-08 12:05 | 26.46280 | 50.63296 | 21501 ft | 311 kts | 127° |
| 2026-05-08 12:06 | 26.45357 | 50.65497 | 19937 ft | 316 kts | 112° |
| 2026-05-08 12:06 | 26.44898 | 50.67899 | 18368 ft | 316 kts | 101° |
| 2026-05-08 12:06 | 26.44591 | 50.70294 | 16680 ft | 312 kts | 104° |
| 2026-05-08 12:06 | 26.43689 | 50.72352 | 15676 ft | 284 kts | 133° |
| 2026-05-08 12:07 | 26.42135 | 50.73456 | 14799 ft | 256 kts | 163° |
| 2026-05-08 12:07 | 26.40390 | 50.73490 | 13535 ft | 255 kts | 193° |
| 2026-05-08 12:07 | 26.38689 | 50.72935 | 12223 ft | 253 kts | 195° |
| 2026-05-08 12:07 | 26.36972 | 50.72695 | 11051 ft | 251 kts | 177° |
| 2026-05-08 12:08 | 26.35384 | 50.73493 | 9942 ft | 256 kts | 142° |
| 2026-05-08 12:08 | 26.34307 | 50.75061 | 8824 ft | 254 kts | 124° |
| 2026-05-08 12:08 | 26.33365 | 50.76709 | 7759 ft | 250 kts | 123° |
| 2026-05-08 12:08 | 26.32446 | 50.78325 | 6792 ft | 244 kts | 123° |
| 2026-05-08 12:09 | 26.31544 | 50.79886 | 5802 ft | 241 kts | 122° |
| 2026-05-08 12:09 | 26.30634 | 50.81450 | 4807 ft | 238 kts | 120° |
| 2026-05-08 12:09 | 26.29746 | 50.82993 | 3828 ft | 236 kts | 120° |
| 2026-05-08 12:09 | 26.28859 | 50.84534 | 2858 ft | 236 kts | 118° |
| 2026-05-08 12:10 | 26.27987 | 50.86042 | 2500 ft | 223 kts | 118° |
| 2026-05-08 12:10 | 26.27128 | 50.87533 | 2492 ft | 239 kts | 118° |
| 2026-05-08 12:10 | 26.26205 | 50.89086 | 2503 ft | 240 kts | 123° |
| 2026-05-08 12:10 | 26.24836 | 50.90182 | 2486 ft | 251 kts | 161° |
| 2026-05-08 12:11 | 26.23130 | 50.90140 | 2487 ft | 245 kts | 202° |
| 2026-05-08 12:11 | 26.21874 | 50.88982 | 2489 ft | 232 kts | 244° |
| 2026-05-08 12:11 | 26.21518 | 50.87295 | 2487 ft | 221 kts | 277° |
| 2026-05-08 12:11 | 26.21981 | 50.85732 | 2490 ft | 211 kts | 307° |
| 2026-05-08 12:12 | 26.22965 | 50.84568 | 2495 ft | 204 kts | 320° |
| 2026-05-08 12:12 | 26.23971 | 50.83490 | 2492 ft | 203 kts | 318° |
| 2026-05-08 12:12 | 26.24950 | 50.82347 | 2490 ft | 205 kts | 316° |
| 2026-05-08 12:12 | 26.25882 | 50.81126 | 2489 ft | 210 kts | 305° |
| 2026-05-08 12:13 | 26.26175 | 50.79546 | 2492 ft | 208 kts | 276° |
| 2026-05-08 12:13 | 26.26121 | 50.77929 | 2492 ft | 212 kts | 275° |
| 2026-05-08 12:13 | 26.26078 | 50.76294 | 2495 ft | 208 kts | 274° |
| 2026-05-08 12:13 | 26.26043 | 50.74683 | 2491 ft | 210 kts | 274° |
| 2026-05-08 12:14 | 26.25750 | 50.73055 | 2491 ft | 221 kts | 255° |
| 2026-05-08 12:14 | 26.24989 | 50.71544 | 2491 ft | 228 kts | 238° |
| 2026-05-08 12:14 | 26.23839 | 50.70352 | 2490 ft | 231 kts | 220° |
| 2026-05-08 12:14 | 26.22367 | 50.69587 | 2494 ft | 238 kts | 199° |
| 2026-05-08 12:15 | 26.20729 | 50.69380 | 2490 ft | 237 kts | 178° |
| 2026-05-08 12:15 | 26.19127 | 50.69772 | 2491 ft | 237 kts | 157° |
| 2026-05-08 12:15 | 26.17675 | 50.70635 | 2494 ft | 237 kts | 147° |
| 2026-05-08 12:15 | 26.16253 | 50.71532 | 2379 ft | 227 kts | 148° |
| 2026-05-08 12:16 | 26.14861 | 50.72388 | 1583 ft | 229 kts | 147° |
| 2026-05-08 12:16 | 26.13555 | 50.73247 | 1491 ft | 212 kts | 136° |
| 2026-05-08 12:16 | 26.12754 | 50.74544 | 1492 ft | 196 kts | 105° |
| 2026-05-08 12:16 | 26.12486 | 50.75943 | 1492 ft | 176 kts | 82° |
| 2026-05-08 12:17 | 26.12655 | 50.77178 | 1507 ft | 150 kts | 63° |
| 2026-05-08 12:17 | 26.13146 | 50.78230 | 1509 ft | 157 kts | 48° |
| 2026-05-08 12:17 | 26.13919 | 50.79064 | 1506 ft | 153 kts | 31° |
| 2026-05-08 12:17 | 26.14879 | 50.79567 | 1500 ft | 154 kts | 15° |
| 2026-05-08 12:18 | 26.15934 | 50.79722 | 1502 ft | 154 kts | 358° |
| 2026-05-08 12:18 | 26.16989 | 50.79496 | 1498 ft | 156 kts | 342° |
| 2026-05-08 12:18 | 26.17935 | 50.78889 | 1499 ft | 159 kts | 326° |
| 2026-05-08 12:18 | 26.18652 | 50.77970 | 1499 ft | 152 kts | 309° |
| 2026-05-08 12:19 | 26.19181 | 50.77045 | 1491 ft | 139 kts | 313° |
| 2026-05-08 12:19 | 26.19738 | 50.76145 | 1492 ft | 143 kts | 312° |
| 2026-05-08 12:19 | 26.20287 | 50.75215 | 1493 ft | 144 kts | 311° |
| 2026-05-08 12:19 | 26.20825 | 50.74270 | 1493 ft | 144 kts | 311° |
| 2026-05-08 12:20 | 26.21363 | 50.73334 | 1491 ft | 144 kts | 310° |
| 2026-05-08 12:20 | 26.21902 | 50.72396 | 1490 ft | 143 kts | 310° |
| 2026-05-08 12:20 | 26.22441 | 50.71457 | 1387 ft | 147 kts | 310° |
| 2026-05-08 12:20 | 26.22979 | 50.70519 | 1211 ft | 135 kts | 309° |
| 2026-05-08 12:21 | 26.23425 | 50.69740 | 1061 ft | 106 kts | 311° |
| 2026-05-08 12:21 | 26.23780 | 50.69126 | 934 ft | 84 kts | 312° |
| 2026-05-08 12:21 | 26.24088 | 50.68613 | 793 ft | 84 kts | 311° |
| 2026-05-08 12:21 | 26.24435 | 50.68084 | 751 ft | 86 kts | 314° |
| 2026-05-08 12:22 | 26.24783 | 50.67483 | 657 ft | 98 kts | 302° |
| 2026-05-08 12:22 | 26.25122 | 50.66791 | 510 ft | 104 kts | 303° |
| 2026-05-08 12:22 | 26.25503 | 50.66103 | 371 ft | 103 kts | 304° |
| 2026-05-08 12:22 | 26.25890 | 50.65432 | 217 ft | 106 kts | 304° |
| 2026-05-08 12:23 | 26.26289 | 50.64736 | 51 ft | 105 kts | 306° |
| 2026-05-08 12:23 | 26.26688 | 50.64063 | 11 ft | 98 kts | 300° |
| 2026-05-08 12:23 | 26.26944 | 50.63613 | 6 ft | 28 kts | 302° |
| 2026-05-08 12:23 | 26.26960 | 50.63484 | 6 ft | 13 kts | 211° |
| 2026-05-08 12:24 | 26.26933 | 50.63464 | 6 ft | 0 kts | 208° |
| 2026-05-08 12:24 | 26.26932 | 50.63464 | 6 ft | 2 kts | 208° |
| 2026-05-08 12:24 | 26.26831 | 50.63391 | 7 ft | 20 kts | 212° |
| 2026-05-08 12:24 | 26.26795 | 50.63307 | 8 ft | 16 kts | 289° |
| 2026-05-08 12:25 | 26.26853 | 50.63203 | 8 ft | 14 kts | 305° |
| 2026-05-08 12:25 | 26.26877 | 50.63129 | 8 ft | 8 kts | 205° |
| 2026-05-08 12:25 | 26.26812 | 50.63085 | 8 ft | 6 kts | 210° |
| 2026-05-08 12:25 | 26.26806 | 50.63081 | 8 ft | 0 kts | 212° |